Аэропорт: Усть-Каменогорск. Усть-Каменогорск

ICAO: UASK

METAR:
2018/11/21 18:30
UASK 211830Z 14005MPS 9999 OVC043CB M02/M05 Q1021 R12/850336 NOSIG RMK QFE740/0987
METAR:
Информация по данной станции не доступна